Atlantida Azul — CSYG2 — position and weather

sailwx.info

Track history (hours):
 
Tides and Currents Weather Stations Pressure Air Temp Water Temp Dewpoint Dewpoint Depression Visibility Wind Speed Wind Dir Waves Ship Positions

Atlantida Azul

Last reported at 2016-Dec-01 08:09 UTC. Time now 2016-Dec-06 12:13 UTC.
Position N 37°56' W 008°51'.

Length 16 m.

Type: Pilot. MMSI: 263672880.

Date/timePositionNaut miles runAvg speedWind from/ knotsBaromVisibWave heightAir tempDewpointWater temp
2016-Dec-01 08:09N 37°56' W 008°51'1 2.1
2016-Dec-01 07:33N 37°56' W 008°52'1 1.3
2016-Dec-01 06:33N 37°57' W 008°53'1 1.2
2016-Dec-01 05:33N 37°57' W 008°52'1 0.8
2016-Dec-01 04:31N 37°56' W 008°52'1 1.3
2016-Dec-01 03:33N 37°57' W 008°53'0 0.1
2016-Dec-01 02:33N 37°57' W 008°53'3 3.4
2016-Dec-01 01:33N 37°54' W 008°51'2 1.6
2016-Dec-01 00:31N 37°56' W 008°51'0 0.5
2016-Nov-30 23:33N 37°56' W 008°51'0 0.0
2016-Nov-30 22:33N 37°56' W 008°51'0 0.0
2016-Nov-30 21:33N 37°56' W 008°51'0 0.2
2016-Nov-30 20:32N 37°56' W 008°51'0 0.1
2016-Nov-30 18:33N 37°56' W 008°51'1 0.4
2016-Nov-30 15:33N 37°57' W 008°52'1 0.5
2016-Nov-30 14:33N 37°56' W 008°51'0 0.1
2016-Nov-30 11:27N 37°56' W 008°51'0 0.3
2016-Nov-30 10:33N 37°56' W 008°51'2 1.7
2016-Nov-30 09:33N 37°57' W 008°53'2 2.2
2016-Nov-30 08:33N 37°56' W 008°51'2 1.7
2016-Nov-30 07:33N 37°56' W 008°53'1 1.4
2016-Nov-30 06:32N 37°56' W 008°51'0 0.0
2016-Nov-30 05:32N 37°56' W 008°51'0 0.0
2016-Nov-29 23:33N 37°56' W 008°51'0 0.2
2016-Nov-29 22:33N 37°56' W 008°51'0 0.2
2016-Nov-29 21:33N 37°56' W 008°51'0 0.3
2016-Nov-29 20:33N 37°56' W 008°51'3 1.5
2016-Nov-29 18:32N 37°53' W 008°50'3 2.9
2016-Nov-29 17:32N 37°56' W 008°51'0 0.4
2016-Nov-29 16:31N 37°56' W 008°51'0 0.0
2016-Nov-29 15:31N 37°56' W 008°51'1 0.8
2016-Nov-29 14:33N 37°57' W 008°52'1 1.2
2016-Nov-29 13:33N 37°57' W 008°53'1 1.2
2016-Nov-29 12:32N 37°57' W 008°52'2 0.9
2016-Nov-29 10:33N 37°56' W 008°53'2 2.1
2016-Nov-29 09:32N 37°56' W 008°51'1 0.3
2016-Nov-29 07:33N 37°55' W 008°51'1 1.0
2016-Nov-29 06:33N 37°56' W 008°51'0 0.0
2016-Nov-29 04:34N 37°56' W 008°51'0 0.1
2016-Nov-29 03:32N 37°56' W 008°51'0 0.0
2016-Nov-28 21:33N 37°56' W 008°51'0 0.0
2016-Nov-28 12:07N 37°56' W 008°51'0 0.0
2016-Nov-28 11:33N 37°56' W 008°51'0 0.0
2016-Nov-28 10:33N 37°56' W 008°51'0 0.0
2016-Nov-27 20:07N 37°56' W 008°51'0 0.7
2016-Nov-27 19:31N 37°56' W 008°51'0 0.4
2016-Nov-27 18:31N 37°56' W 008°51'0 0.1
2016-Nov-27 17:31N 37°56' W 008°51'1 0.1
2016-Nov-27 08:33N 37°55' W 008°51'1 1.1
2016-Nov-27 07:33N 37°56' W 008°51'0 0.1
2016-Nov-27 02:10N 37°56' W 008°51'0 0.8
2016-Nov-27 01:32N 37°56' W 008°51'0 0.1
2016-Nov-27 00:33N 37°56' W 008°51'2 1.5
2016-Nov-26 23:32N 37°56' W 008°52'1 0.2
2016-Nov-26 18:17N 37°56' W 008°51'0 0.5
2016-Nov-26 17:33N 37°56' W 008°51'0 0.3
2016-Nov-26 16:34N 37°56' W 008°51'1 0.6
2016-Nov-26 15:33N 37°56' W 008°52'1 0.0
2016-Nov-25 19:05N 37°56' W 008°51'2 3.2
2016-Nov-25 18:33N 37°56' W 008°53'1 1.2
2016-Nov-25 17:33N 37°57' W 008°53'2 1.9
2016-Nov-25 16:31N 37°56' W 008°51'2 1.7
2016-Nov-25 15:32N 37°55' W 008°50'1 1.0
2016-Nov-25 14:33N 37°55' W 008°51'1 0.8
2016-Nov-25 13:33N 37°56' W 008°51'2 2.0
2016-Nov-25 12:33N 37°57' W 008°53'2 1.8
2016-Nov-25 11:32N 37°56' W 008°51'0 0.3
2016-Nov-25 10:32N 37°56' W 008°51'0 0.3
2016-Nov-25 09:32N 37°56' W 008°51'2 1.8
2016-Nov-25 08:33N 37°57' W 008°53'3 2.9
2016-Nov-25 07:33N 37°55' W 008°50'1 1.2
2016-Nov-25 06:33N 37°56' W 008°51'0 0.0
2016-Nov-24 16:28N 37°56' W 008°51'2 0.6
2016-Nov-24 13:33N 37°57' W 008°53'2 2.2
2016-Nov-24 12:33N 37°56' W 008°51'2 2.2
2016-Nov-24 11:32N 37°57' W 008°53'2 2.1
2016-Nov-24 10:33N 37°55' W 008°52'1 0.9
2016-Nov-24 09:33N 37°55' W 008°51'1 0.1
2016-Nov-23 20:15N 37°56' W 008°51'0 0.7
2016-Nov-23 19:32N 37°56' W 008°51'0 0.2
2016-Nov-23 18:32N 37°56' W 008°51'0 0.2
2016-Nov-23 17:33N 37°56' W 008°51'0 0.2
2016-Nov-23 16:32N 37°56' W 008°51'0 0.1
2016-Nov-23 15:33N 37°56' W 008°51'2 1.7
2016-Nov-23 14:33N 37°54' W 008°51'2 2.0
2016-Nov-23 13:33N 37°56' W 008°51'1 1.1
2016-Nov-23 12:32N 37°55' W 008°50'3 0.3
2016-Nov-23 03:32N 37°57' W 008°53'2 1.7
2016-Nov-23 02:32N 37°56' W 008°51'2 1.0
2016-Nov-23 00:33N 37°54' W 008°51'2 2.0
2016-Nov-22 23:33N 37°56' W 008°51'2 2.1
2016-Nov-22 22:33N 37°54' W 008°51'2 0.9
2016-Nov-22 20:33N 37°56' W 008°51'0 0.2
2016-Nov-22 19:31N 37°56' W 008°51'0 0.0
2016-Nov-22 17:34N 37°56' W 008°51'0 0.4
2016-Nov-22 16:31N 37°56' W 008°51'0 0.0
2016-Nov-22 15:31N 37°56' W 008°51'0 0.0
2016-Nov-22 10:33N 37°56' W 008°51'0 0.0
2016-Nov-22 04:14N 37°56' W 008°51'0 0.0
2016-Nov-22 03:32N 37°56' W 008°51'0 0.0
2016-Nov-22 02:32N 37°56' W 008°51'1 0.3
2016-Nov-21 23:34N 37°55' W 008°51'1 0.3
2016-Nov-21 21:32N 37°56' W 008°51'0 0.0
2016-Nov-21 17:33N 37°56' W 008°51'0 0.0
2016-Nov-21 08:18N 37°56' W 008°51'  
Track history (hours):
 
Tides and Currents Weather Stations Pressure Air Temp Water Temp Dewpoint Dewpoint Depression Visibility Wind Speed Wind Dir Waves Ship Positions

Atlantida Azul

Last reported at 2016-Dec-01 08:09 UTC. Time now 2016-Dec-06 12:13 UTC.
Position N 37°56' W 008°51'.

Length 16 m.

Type: Pilot. MMSI: 263672880.

Date/timePositionNaut miles runAvg speedWind from/ knotsBaromVisibWave heightAir tempDewpointWater temp
2016-Dec-01 08:09N 37°56' W 008°51'1 2.1
2016-Dec-01 07:33N 37°56' W 008°52'1 1.3
2016-Dec-01 06:33N 37°57' W 008°53'1 1.2
2016-Dec-01 05:33N 37°57' W 008°52'1 0.8
2016-Dec-01 04:31N 37°56' W 008°52'1 1.3
2016-Dec-01 03:33N 37°57' W 008°53'0 0.1
2016-Dec-01 02:33N 37°57' W 008°53'3 3.4
2016-Dec-01 01:33N 37°54' W 008°51'2 1.6
2016-Dec-01 00:31N 37°56' W 008°51'0 0.5
2016-Nov-30 23:33N 37°56' W 008°51'0 0.0
2016-Nov-30 22:33N 37°56' W 008°51'0 0.0
2016-Nov-30 21:33N 37°56' W 008°51'0 0.2
2016-Nov-30 20:32N 37°56' W 008°51'0 0.1
2016-Nov-30 18:33N 37°56' W 008°51'1 0.4
2016-Nov-30 15:33N 37°57' W 008°52'1 0.5
2016-Nov-30 14:33N 37°56' W 008°51'0 0.1
2016-Nov-30 11:27N 37°56' W 008°51'0 0.3
2016-Nov-30 10:33N 37°56' W 008°51'2 1.7
2016-Nov-30 09:33N 37°57' W 008°53'2 2.2
2016-Nov-30 08:33N 37°56' W 008°51'2 1.7
2016-Nov-30 07:33N 37°56' W 008°53'1 1.4
2016-Nov-30 06:32N 37°56' W 008°51'0 0.0
2016-Nov-30 05:32N 37°56' W 008°51'0 0.0
2016-Nov-29 23:33N 37°56' W 008°51'0 0.2
2016-Nov-29 22:33N 37°56' W 008°51'0 0.2
2016-Nov-29 21:33N 37°56' W 008°51'0 0.3
2016-Nov-29 20:33N 37°56' W 008°51'3 1.5
2016-Nov-29 18:32N 37°53' W 008°50'3 2.9
2016-Nov-29 17:32N 37°56' W 008°51'0 0.4
2016-Nov-29 16:31N 37°56' W 008°51'0 0.0
2016-Nov-29 15:31N 37°56' W 008°51'1 0.8
2016-Nov-29 14:33N 37°57' W 008°52'1 1.2
2016-Nov-29 13:33N 37°57' W 008°53'1 1.2
2016-Nov-29 12:32N 37°57' W 008°52'2 0.9
2016-Nov-29 10:33N 37°56' W 008°53'2 2.1
2016-Nov-29 09:32N 37°56' W 008°51'1 0.3
2016-Nov-29 07:33N 37°55' W 008°51'1 1.0
2016-Nov-29 06:33N 37°56' W 008°51'0 0.0
2016-Nov-29 04:34N 37°56' W 008°51'0 0.1
2016-Nov-29 03:32N 37°56' W 008°51'0 0.0
2016-Nov-28 21:33N 37°56' W 008°51'0 0.0
2016-Nov-28 12:07N 37°56' W 008°51'0 0.0
2016-Nov-28 11:33N 37°56' W 008°51'0 0.0
2016-Nov-28 10:33N 37°56' W 008°51'0 0.0
2016-Nov-27 20:07N 37°56' W 008°51'0 0.7
2016-Nov-27 19:31N 37°56' W 008°51'0 0.4
2016-Nov-27 18:31N 37°56' W 008°51'0 0.1
2016-Nov-27 17:31N 37°56' W 008°51'1 0.1
2016-Nov-27 08:33N 37°55' W 008°51'1 1.1
2016-Nov-27 07:33N 37°56' W 008°51'0 0.1
2016-Nov-27 02:10N 37°56' W 008°51'0 0.8
2016-Nov-27 01:32N 37°56' W 008°51'0 0.1
2016-Nov-27 00:33N 37°56' W 008°51'2 1.5
2016-Nov-26 23:32N 37°56' W 008°52'1 0.2
2016-Nov-26 18:17N 37°56' W 008°51'0 0.5
2016-Nov-26 17:33N 37°56' W 008°51'0 0.3
2016-Nov-26 16:34N 37°56' W 008°51'1 0.6
2016-Nov-26 15:33N 37°56' W 008°52'1 0.0
2016-Nov-25 19:05N 37°56' W 008°51'2 3.2
2016-Nov-25 18:33N 37°56' W 008°53'1 1.2
2016-Nov-25 17:33N 37°57' W 008°53'2 1.9
2016-Nov-25 16:31N 37°56' W 008°51'2 1.7
2016-Nov-25 15:32N 37°55' W 008°50'1 1.0
2016-Nov-25 14:33N 37°55' W 008°51'1 0.8
2016-Nov-25 13:33N 37°56' W 008°51'2 2.0
2016-Nov-25 12:33N 37°57' W 008°53'2 1.8
2016-Nov-25 11:32N 37°56' W 008°51'0 0.3
2016-Nov-25 10:32N 37°56' W 008°51'0 0.3
2016-Nov-25 09:32N 37°56' W 008°51'2 1.8
2016-Nov-25 08:33N 37°57' W 008°53'3 2.9
2016-Nov-25 07:33N 37°55' W 008°50'1 1.2
2016-Nov-25 06:33N 37°56' W 008°51'0 0.0
2016-Nov-24 16:28N 37°56' W 008°51'2 0.6
2016-Nov-24 13:33N 37°57' W 008°53'2 2.2
2016-Nov-24 12:33N 37°56' W 008°51'2 2.2
2016-Nov-24 11:32N 37°57' W 008°53'2 2.1
2016-Nov-24 10:33N 37°55' W 008°52'1 0.9
2016-Nov-24 09:33N 37°55' W 008°51'1 0.1
2016-Nov-23 20:15N 37°56' W 008°51'0 0.7
2016-Nov-23 19:32N 37°56' W 008°51'0 0.2
2016-Nov-23 18:32N 37°56' W 008°51'0 0.2
2016-Nov-23 17:33N 37°56' W 008°51'0 0.2
2016-Nov-23 16:32N 37°56' W 008°51'0 0.1
2016-Nov-23 15:33N 37°56' W 008°51'2 1.7
2016-Nov-23 14:33N 37°54' W 008°51'2 2.0
2016-Nov-23 13:33N 37°56' W 008°51'1 1.1
2016-Nov-23 12:32N 37°55' W 008°50'3 0.3
2016-Nov-23 03:32N 37°57' W 008°53'2 1.7
2016-Nov-23 02:32N 37°56' W 008°51'2 1.0
2016-Nov-23 00:33N 37°54' W 008°51'2 2.0
2016-Nov-22 23:33N 37°56' W 008°51'2 2.1
2016-Nov-22 22:33N 37°54' W 008°51'2 0.9
2016-Nov-22 20:33N 37°56' W 008°51'0 0.2
2016-Nov-22 19:31N 37°56' W 008°51'0 0.0
2016-Nov-22 17:34N 37°56' W 008°51'0 0.4
2016-Nov-22 16:31N 37°56' W 008°51'0 0.0
2016-Nov-22 15:31N 37°56' W 008°51'0 0.0
2016-Nov-22 10:33N 37°56' W 008°51'0 0.0
2016-Nov-22 04:14N 37°56' W 008°51'0 0.0
2016-Nov-22 03:32N 37°56' W 008°51'0 0.0
2016-Nov-22 02:32N 37°56' W 008°51'1 0.3
2016-Nov-21 23:34N 37°55' W 008°51'1 0.3
2016-Nov-21 21:32N 37°56' W 008°51'0 0.0
2016-Nov-21 17:33N 37°56' W 008°51'0 0.0
2016-Nov-21 08:18N 37°56' W 008°51'  

Dump ship's entire track history